Time;durP1;ratioP1;P1;durP2;ratioP2;P2;SDS_P1;SDS_P2;PMS_P1;PMS_P2;Temp;Humidity;BMP_temperature;BMP_pressure;BME280_temperature;BME280_humidity;BME280_pressure;Samples;Min_cycle;Max_cycle;Signal;HPM_P1;HPM_P2
2022/03/26 00:00:56;;;;;;;;;;;;;;;17.58;23.61;100105.75;4463925;32;35154;-79
2022/03/26 00:03:23;;;;;;;;;;;;;;;17.32;24.22;100108.34;4460825;32;34305;-81
2022/03/26 00:05:50;;;;;;;;;;;;;;;17.81;23.52;100105.75;4456398;32;34396;-81
2022/03/26 00:08:17;;;;;;;;;;;;;;;17.69;23.61;100105.69;4464045;32;34063;-81
2022/03/26 00:10:45;;;;;;;;;;;;;;;17.26;24.39;100106.59;4461793;32;34446;-80
2022/03/26 00:13:13;;;;;;;;;;;;;;;17.46;24.10;100122.34;4458629;32;34930;-81
2022/03/26 00:15:41;;;;;;;;;;;;;;;17.50;23.98;100118.84;4466639;32;34264;-79
2022/03/26 00:18:12;;;;;;;;;;;;;;;17.54;23.92;100122.34;4463587;32;34275;-80
2022/03/26 00:20:40;;;;;;;;;;;;;;;17.49;23.73;100122.31;4462750;32;34520;-79
2022/03/26 00:23:07;;;;;;;;;;;;;;;17.75;23.49;100119.72;4467792;32;35207;-80
2022/03/26 00:25:35;;;;;;;;;;;;;;;17.62;23.55;100128.47;4459608;32;33047;-80
2022/03/26 00:28:03;;;;;;;;;;;;;;;17.64;23.92;100131.06;4461569;32;34332;-79
2022/03/26 00:30:31;;;;;;;;;;;;;;;17.11;24.30;100129.28;4439910;32;34432;-80
2022/03/26 00:32:58;;;;;;;;;;;;;;;17.38;24.11;100128.44;4458373;32;33777;-80
2022/03/26 00:35:25;;;;;;;;;;;;;;;16.76;24.66;100130.09;4462179;32;34261;-79
2022/03/26 00:37:53;;;;;;;;;;;;;;;17.20;24.40;100118.84;4454405;32;35178;-80
2022/03/26 00:40:20;;;;;;;;;;;;;;;16.82;24.76;100119.66;4457149;32;35136;-79
2022/03/26 00:42:47;;;;;;;;;;;;;;;17.28;24.54;100111.84;4466257;32;34543;-79
2022/03/26 00:45:15;;;;;;;;;;;;;;;16.96;24.56;100125.75;4453096;32;34247;-80
2022/03/26 00:47:42;;;;;;;;;;;;;;;17.10;24.42;100123.19;4457167;32;33960;-80
2022/03/26 00:50:10;;;;;;;;;;;;;;;17.09;24.63;100116.19;4462661;32;34475;-81
2022/03/26 00:52:37;;;;;;;;;;;;;;;16.89;24.55;100124.00;4455086;32;33603;-80
2022/03/26 00:55:05;;;;;;;;;;;;;;;17.01;24.51;100123.19;4464333;32;33214;-79
2022/03/26 00:57:32;;;;;;;;;;;;;;;17.16;24.65;100117.06;4455546;32;34976;-81
2022/03/26 00:59:59;;;;;;;;;;;;;;;17.13;24.60;100117.94;4464762;32;35403;-79
2022/03/26 01:02:27;;;;;;;;;;;;;;;17.22;24.67;100111.84;4463895;32;34693;-80
2022/03/26 01:04:54;;;;;;;;;;;;;;;17.50;24.37;100113.59;4456327;32;34028;-80
2022/03/26 01:07:21;;;;;;;;;;;;;;;17.62;24.49;100110.09;4451866;32;34876;-80
2022/03/26 01:09:48;;;;;;;;;;;;;;;17.57;24.40;100110.97;4463657;32;34017;-80
2022/03/26 01:12:17;;;;;;;;;;;;;;;17.56;24.43;100106.59;4467782;32;33973;-80
2022/03/26 01:14:44;;;;;;;;;;;;;;;17.65;24.35;100110.09;4467649;32;34274;-80
2022/03/26 01:17:11;;;;;;;;;;;;;;;17.60;24.46;100108.34;4452675;32;34009;-79
2022/03/26 01:19:38;;;;;;;;;;;;;;;17.70;24.44;100104.84;4452067;32;34457;-80
2022/03/26 01:22:06;;;;;;;;;;;;;;;17.71;24.49;100101.34;4452079;32;34221;-80
2022/03/26 01:24:33;;;;;;;;;;;;;;;17.72;24.57;100095.22;4451967;32;34063;-80
2022/03/26 01:27:00;;;;;;;;;;;;;;;17.76;24.62;100104.84;4464891;32;34247;-80
2022/03/26 01:29:28;;;;;;;;;;;;;;;17.80;24.60;100101.34;4467939;32;34466;-80
2022/03/26 01:31:55;;;;;;;;;;;;;;;17.67;24.85;100100.47;4467281;32;33993;-81
2022/03/26 01:34:24;;;;;;;;;;;;;;;17.54;24.96;100100.47;4465724;32;35044;-80
2022/03/26 01:36:51;;;;;;;;;;;;;;;17.47;25.08;100097.00;4453647;32;34859;-80
2022/03/26 01:39:20;;;;;;;;;;;;;;;17.58;25.06;100094.34;4464305;32;35159;-79
2022/03/26 01:41:48;;;;;;;;;;;;;;;17.47;25.26;100097.87;4459803;32;34933;-80
2022/03/26 01:44:15;;;;;;;;;;;;;;;16.98;25.76;100097.84;4453200;32;34116;-80
2022/03/26 01:46:46;;;;;;;;;;;;;;;17.42;25.27;100088.25;4454158;32;34359;-80
2022/03/26 01:49:13;;;;;;;;;;;;;;;17.48;25.15;100080.38;4437788;32;35037;-80
2022/03/26 01:51:40;;;;;;;;;;;;;;;17.49;25.22;100088.25;4451464;32;34284;-81
2022/03/26 01:54:08;;;;;;;;;;;;;;;17.55;25.24;100081.25;4437808;32;33098;-81
2022/03/26 01:56:35;;;;;;;;;;;;;;;17.42;25.40;100078.63;4444168;32;33928;-82
2022/03/26 01:59:03;;;;;;;;;;;;;;;17.23;25.68;100090.00;4443100;32;34458;-80
2022/03/26 02:01:34;;;;;;;;;;;;;;;17.38;25.35;100092.63;4447902;32;33385;-80
2022/03/26 02:04:06;;;;;;;;;;;;;;;16.90;25.97;100089.09;4463351;32;33695;-80
2022/03/26 02:06:34;;;;;;;;;;;;;;;17.19;25.57;100085.63;4441750;32;34139;-80
2022/03/26 02:09:02;;;;;;;;;;;;;;;17.20;25.58;100082.16;4461708;32;35043;-80
2022/03/26 02:11:33;;;;;;;;;;;;;;;17.37;25.26;100069.91;4461553;32;35016;-81
2022/03/26 02:14:02;;;;;;;;;;;;;;;17.39;25.42;100083.91;4458912;32;33158;-81
2022/03/26 02:16:30;;;;;;;;;;;;;;;17.44;25.16;100076.91;4458940;32;35281;-81
2022/03/26 02:18:57;;;;;;;;;;;;;;;17.37;25.37;100076.91;4453672;32;34428;-81
2022/03/26 02:21:25;;;;;;;;;;;;;;;17.08;25.81;100082.13;4461995;32;35118;-80
2022/03/26 02:23:52;;;;;;;;;;;;;;;16.95;25.81;100082.13;4446469;32;33286;-80
2022/03/26 02:26:21;;;;;;;;;;;;;;;17.10;25.70;100081.25;4458065;32;34184;-81
2022/03/26 02:28:51;;;;;;;;;;;;;;;17.30;25.68;100078.63;4462789;32;34405;-80
2022/03/26 02:31:19;;;;;;;;;;;;;;;17.35;25.58;100082.16;4460673;32;34185;-81
2022/03/26 02:33:46;;;;;;;;;;;;;;;17.35;25.62;100081.25;4462704;32;34133;-81
2022/03/26 02:36:13;;;;;;;;;;;;;;;17.35;25.71;100069.06;4462405;32;34345;-81
2022/03/26 02:38:41;;;;;;;;;;;;;;;17.37;25.74;100066.41;4456000;32;34097;-81
2022/03/26 02:41:08;;;;;;;;;;;;;;;17.27;26.00;100071.66;4444304;32;32737;-80
2022/03/26 02:43:35;;;;;;;;;;;;;;;17.29;25.88;100071.66;4459677;32;33431;-81
2022/03/26 02:46:03;;;;;;;;;;;;;;;17.27;25.75;100073.38;4461502;32;34309;-81
2022/03/26 02:48:30;;;;;;;;;;;;;;;17.23;25.68;100069.03;4455881;32;35677;-81
2022/03/26 02:50:58;;;;;;;;;;;;;;;17.27;25.81;100074.28;4458129;32;32668;-81
2022/03/26 02:53:25;;;;;;;;;;;;;;;17.24;25.71;100078.66;4454344;32;33346;-79
2022/03/26 02:55:52;;;;;;;;;;;;;;;17.19;25.82;100073.38;4460631;32;35115;-81
2022/03/26 02:58:20;;;;;;;;;;;;;;;17.16;25.86;100077.75;4446471;32;35291;-81
2022/03/26 03:00:47;;;;;;;;;;;;;;;17.22;25.77;100077.78;4457360;32;34806;-80
2022/03/26 03:03:15;;;;;;;;;;;;;;;17.09;25.94;100079.53;4455839;32;34161;-81
2022/03/26 03:05:46;;;;;;;;;;;;;;;16.88;26.26;100076.84;4454617;32;34282;-81
2022/03/26 03:08:14;;;;;;;;;;;;;;;16.76;26.36;100082.94;4458663;32;34522;-80
2022/03/26 03:10:44;;;;;;;;;;;;;;;16.88;26.28;100077.72;4456547;32;35084;-81
2022/03/26 03:13:12;;;;;;;;;;;;;;;16.43;26.74;100076.69;4447221;32;33575;-81
2022/03/26 03:15:39;;;;;;;;;;;;;;;16.69;26.47;100081.16;4456297;32;34121;-81
2022/03/26 03:18:07;;;;;;;;;;;;;;;16.89;26.42;100084.72;4457613;32;32749;-80
2022/03/26 03:20:34;;;;;;;;;;;;;;;16.89;26.27;100076.84;4460218;32;33733;-81
2022/03/26 03:23:01;;;;;;;;;;;;;;;16.89;26.28;100075.97;4441846;32;33543;-80
2022/03/26 03:25:29;;;;;;;;;;;;;;;16.90;26.21;100078.63;4461263;32;34325;-81
2022/03/26 03:27:57;;;;;;;;;;;;;;;16.84;26.30;100081.22;4459135;32;35133;-81
2022/03/26 03:30:25;;;;;;;;;;;;;;;16.95;26.13;100076.88;4456601;32;33746;-81
2022/03/26 03:32:53;;;;;;;;;;;;;;;16.91;26.19;100075.13;4457756;32;33394;-82
2022/03/26 03:35:21;;;;;;;;;;;;;;;16.88;26.04;100074.25;4462336;32;33770;-81
2022/03/26 03:37:48;;;;;;;;;;;;;;;16.84;26.33;100078.59;4443045;32;34707;-81
2022/03/26 03:40:17;;;;;;;;;;;;;;;16.52;26.58;100082.00;4456791;32;34028;-82
2022/03/26 03:42:46;;;;;;;;;;;;;;;16.84;26.08;100073.38;4445410;32;33200;-81
2022/03/26 03:45:13;;;;;;;;;;;;;;;16.85;26.25;100072.47;4460714;32;34296;-80
2022/03/26 03:47:40;;;;;;;;;;;;;;;16.91;26.23;100074.25;4457295;32;34053;-80
2022/03/26 03:50:08;;;;;;;;;;;;;;;16.86;26.33;100074.25;4468006;32;34095;-79
2022/03/26 03:52:35;;;;;;;;;;;;;;;16.85;26.44;100071.63;4467955;32;33223;-81
2022/03/26 03:55:03;;;;;;;;;;;;;;;16.89;26.44;100066.38;4462810;32;34897;-81
2022/03/26 03:57:30;;;;;;;;;;;;;;;16.86;26.52;100071.63;4449781;32;33534;-81
2022/03/26 03:59:57;;;;;;;;;;;;;;;16.83;26.33;100063.75;4467355;32;34824;-81
2022/03/26 04:02:24;;;;;;;;;;;;;;;16.69;26.40;100063.69;4451728;32;34280;-81
2022/03/26 04:04:52;;;;;;;;;;;;;;;16.58;26.36;100073.25;4452609;32;35212;-81
2022/03/26 04:07:19;;;;;;;;;;;;;;;16.77;25.97;100062.00;4438516;32;34701;-80
2022/03/26 04:09:47;;;;;;;;;;;;;;;16.78;25.92;100060.25;4452313;32;34918;-81
2022/03/26 04:12:14;;;;;;;;;;;;;;;16.81;25.78;100064.63;4451402;32;34239;-80
2022/03/26 04:14:43;;;;;;;;;;;;;;;16.75;25.95;100063.75;4468156;32;34384;-81
2022/03/26 04:17:11;;;;;;;;;;;;;;;16.66;26.02;100068.91;4468044;32;34107;-80
2022/03/26 04:19:41;;;;;;;;;;;;;;;16.57;26.07;100071.53;4439000;32;34377;-81
2022/03/26 04:22:08;;;;;;;;;;;;;;;16.54;26.18;100072.38;4452736;32;33020;-81
2022/03/26 04:24:36;;;;;;;;;;;;;;;16.48;26.15;100069.75;4452663;32;33923;-81
2022/03/26 04:27:04;;;;;;;;;;;;;;;16.45;26.15;100079.34;4452647;32;33919;-80
2022/03/26 04:29:32;;;;;;;;;;;;;;;16.51;26.10;100080.22;4465422;32;34197;-81
2022/03/26 04:31:59;;;;;;;;;;;;;;;16.45;26.10;100084.59;4459218;32;34008;-81
2022/03/26 04:34:27;;;;;;;;;;;;;;;16.24;26.35;100087.97;4465277;32;35055;-81
2022/03/26 04:36:55;;;;;;;;;;;;;;;16.18;26.46;100085.34;4460667;32;35277;-80
2022/03/26 04:39:22;;;;;;;;;;;;;;;16.16;26.45;100092.28;4453471;32;34122;-80
2022/03/26 04:41:50;;;;;;;;;;;;;;;16.33;26.40;100095.88;4466681;32;33462;-81
2022/03/26 04:44:17;;;;;;;;;;;;;;;15.83;26.94;100099.06;4466399;32;35062;-82
2022/03/26 04:46:44;;;;;;;;;;;;;;;15.92;26.83;100093.03;4454364;32;34262;-80
2022/03/26 04:49:12;;;;;;;;;;;;;;;16.01;26.73;100093.97;4455816;32;34196;-80
2022/03/26 04:51:39;;;;;;;;;;;;;;;16.00;26.82;100097.44;4461882;32;34155;-80
2022/03/26 04:54:06;;;;;;;;;;;;;;;15.75;27.00;100090.31;4458371;32;34995;-80
2022/03/26 04:56:33;;;;;;;;;;;;;;;15.93;26.97;100092.16;4453371;32;35090;-80
2022/03/26 04:59:00;;;;;;;;;;;;;;;16.02;26.70;100095.72;4466160;32;34303;-80
2022/03/26 05:01:27;;;;;;;;;;;;;;;16.02;26.80;100089.59;4461311;32;34129;-80
2022/03/26 05:03:55;;;;;;;;;;;;;;;15.99;27.14;100095.72;4461561;32;34579;-80
2022/03/26 05:06:22;;;;;;;;;;;;;;;16.23;26.92;100089.72;4461896;32;33501;-82
2022/03/26 05:08:49;;;;;;;;;;;;;;;16.33;26.80;100090.66;4460998;32;33832;-80
2022/03/26 05:11:18;;;;;;;;;;;;;;;16.29;27.25;100094.13;4466415;32;33411;-80
2022/03/26 05:13:45;;;;;;;;;;;;;;;16.56;26.74;100098.56;4458182;32;34347;-80
2022/03/26 05:16:12;;;;;;;;;;;;;;;16.53;26.58;100098.56;4464790;32;34502;-80
2022/03/26 05:18:40;;;;;;;;;;;;;;;16.88;26.64;100101.31;4463074;32;34016;-81
2022/03/26 05:21:08;;;;;;;;;;;;;;;17.20;26.39;100097.87;4459564;32;33467;-80
2022/03/26 05:23:35;;;;;;;;;;;;;;;17.20;26.48;100103.12;4453106;32;34210;-79
2022/03/26 05:26:03;;;;;;;;;;;;;;;17.51;25.94;100104.84;4440286;32;34834;-79
2022/03/26 05:28:30;;;;;;;;;;;;;;;17.39;25.92;100107.50;4449330;32;33979;-80
2022/03/26 05:30:57;;;;;;;;;;;;;;;17.49;25.83;100109.22;4452830;32;33323;-79
2022/03/26 05:33:25;;;;;;;;;;;;;;;17.68;26.10;100106.59;4465942;32;35058;-79
2022/03/26 05:35:52;;;;;;;;;;;;;;;17.88;25.67;100106.56;4458572;32;34350;-81
2022/03/26 05:38:19;;;;;;;;;;;;;;;17.92;25.72;100111.84;4461677;32;35154;-80
2022/03/26 05:40:47;;;;;;;;;;;;;;;17.47;25.83;100112.72;4455085;32;33611;-79
2022/03/26 05:43:14;;;;;;;;;;;;;;;17.96;25.00;100116.19;4460212;32;32551;-79
2022/03/26 05:45:41;;;;;;;;;;;;;;;17.90;25.13;100113.59;4462847;32;34379;-81
2022/03/26 05:48:08;;;;;;;;;;;;;;;17.99;25.01;100110.06;4451854;32;34169;-79
2022/03/26 05:50:35;;;;;;;;;;;;;;;18.09;24.97;100109.16;4437998;32;33461;-79
2022/03/26 05:53:03;;;;;;;;;;;;;;;18.14;24.98;100112.63;4456120;32;33873;-78
2022/03/26 05:55:30;;;;;;;;;;;;;;;18.09;25.02;100113.53;4453038;32;34406;-81
2022/03/26 05:57:58;;;;;;;;;;;;;;;17.86;25.48;100109.22;4456215;32;34927;-79
2022/03/26 06:00:25;;;;;;;;;;;;;;;17.71;25.59;100109.22;4467343;32;33276;-81
2022/03/26 06:02:52;;;;;;;;;;;;;;;17.93;25.27;100118.81;4466137;32;34094;-79
2022/03/26 06:05:20;;;;;;;;;;;;;;;18.16;24.96;100118.78;4467170;32;35837;-80
2022/03/26 06:07:47;;;;;;;;;;;;;;;17.34;26.38;100126.69;4467394;32;34515;-80
2022/03/26 06:10:14;;;;;;;;;;;;;;;17.49;25.40;100127.56;4461369;32;33105;-80
2022/03/26 06:12:43;;;;;;;;;;;;;;;17.14;25.94;100129.31;4455194;32;33938;-83
2022/03/26 06:15:10;;;;;;;;;;;;;;;17.06;25.67;100120.56;4467168;32;35412;-80
2022/03/26 06:17:58;;;;;;;;;;;;;;;17.91;25.43;100120.56;4462901;32;33914;-81
2022/03/26 06:20:25;;;;;;;;;;;;;;;17.70;24.62;100120.59;4463461;32;33188;-84
2022/03/26 06:22:52;;;;;;;;;;;;;;;17.45;24.96;100124.94;4449788;32;35222;-80
2022/03/26 06:25:20;;;;;;;;;;;;;;;16.91;26.86;100126.62;4466765;32;33951;-81
2022/03/26 06:27:48;;;;;;;;;;;;;;;17.63;25.71;100129.31;4468386;32;34449;-81
2022/03/26 06:30:15;;;;;;;;;;;;;;;18.03;25.21;100129.28;4453370;32;33665;-81
2022/03/26 06:32:42;;;;;;;;;;;;;;;17.13;26.44;100128.44;4453314;32;34387;-80
2022/03/26 06:35:10;;;;;;;;;;;;;;;17.71;25.31;100123.19;4456100;32;34421;-81
2022/03/26 06:37:37;;;;;;;;;;;;;;;16.83;25.52;100131.00;4453609;32;34291;-81
2022/03/26 06:40:04;;;;;;;;;;;;;;;17.93;24.52;100131.94;4453137;32;33433;-81
2022/03/26 06:42:31;;;;;;;;;;;;;;;17.72;24.69;100124.06;4453167;32;34035;-81
2022/03/26 06:44:59;;;;;;;;;;;;;;;18.40;23.76;100125.69;4458305;32;34002;-81
2022/03/26 06:47:27;;;;;;;;;;;;;;;18.68;23.66;100125.59;4468720;32;34927;-81
2022/03/26 06:49:54;;;;;;;;;;;;;;;17.37;27.21;100135.44;4469088;32;33434;-81
2022/03/26 06:52:23;;;;;;;;;;;;;;;18.36;25.27;100137.06;4454569;32;35124;-81
2022/03/26 06:54:51;;;;;;;;;;;;;;;18.94;24.08;100142.13;4464343;32;35172;-82
2022/03/26 06:57:18;;;;;;;;;;;;;;;18.79;23.74;100134.31;4453054;32;34272;-81
2022/03/26 06:59:45;;;;;;;;;;;;;;;17.87;25.85;100139.81;4453205;32;34342;-81
2022/03/26 07:02:13;;;;;;;;;;;;;;;17.95;26.20;100138.03;4465576;32;34021;-81
2022/03/26 07:04:40;;;;;;;;;;;;;;;17.31;27.85;100148.53;4468778;32;35202;-81
2022/03/26 07:07:07;;;;;;;;;;;;;;;16.91;28.05;100150.22;4468671;32;34028;-81
2022/03/26 07:09:34;;;;;;;;;;;;;;;16.96;27.46;100156.31;4468340;32;33381;-81
2022/03/26 07:12:02;;;;;;;;;;;;;;;16.97;27.70;100158.97;4461573;32;34220;-81
2022/03/26 07:14:29;;;;;;;;;;;;;;;17.86;26.26;100143.31;4453449;32;34544;-81
2022/03/26 07:16:57;;;;;;;;;;;;;;;18.43;25.65;100148.44;4452562;32;34257;-80
2022/03/26 07:19:24;;;;;;;;;;;;;;;18.17;25.39;100153.75;4463752;32;33721;-81
2022/03/26 07:21:51;;;;;;;;;;;;;;;18.35;25.51;100148.47;4468024;32;34269;-82
2022/03/26 07:24:19;;;;;;;;;;;;;;;16.81;27.52;100156.28;4466616;32;34289;-81
2022/03/26 07:26:46;;;;;;;;;;;;;;;17.88;26.23;100146.84;4468339;32;34281;-82
2022/03/26 07:29:13;;;;;;;;;;;;;;;17.37;26.92;100152.91;4468537;32;33269;-81
2022/03/26 07:31:46;;;;;;;;;;;;;;;18.05;26.25;100152.03;4468089;32;34274;-81
2022/03/26 07:34:15;;;;;;;;;;;;;;;18.24;25.09;100151.12;4459343;32;34366;-82
2022/03/26 07:36:43;;;;;;;;;;;;;;;18.26;25.30;100151.12;4466027;32;34257;-81
2022/03/26 07:39:10;;;;;;;;;;;;;;;17.34;25.87;100153.78;4468236;32;34461;-81
2022/03/26 07:41:38;;;;;;;;;;;;;;;17.84;25.10;100147.72;4453997;32;34016;-81
2022/03/26 07:44:05;;;;;;;;;;;;;;;17.91;25.12;100156.41;4453172;32;33930;-81
2022/03/26 07:46:33;;;;;;;;;;;;;;;17.80;25.08;100153.81;4452824;32;33974;-81
2022/03/26 07:49:00;;;;;;;;;;;;;;;18.36;23.90;100155.44;4453134;32;33516;-81
2022/03/26 07:51:27;;;;;;;;;;;;;;;18.00;24.54;100148.56;4459864;32;34380;-81
2022/03/26 07:53:55;;;;;;;;;;;;;;;17.79;24.90;100152.06;4452709;32;35525;-81
2022/03/26 07:56:23;;;;;;;;;;;;;;;18.73;23.24;100154.47;4462626;32;34259;-85
2022/03/26 07:58:50;;;;;;;;;;;;;;;18.35;23.82;100153.72;4468569;32;33223;-86
2022/03/26 08:01:18;;;;;;;;;;;;;;;18.77;23.62;100162.34;4468128;32;34340;-86
2022/03/26 08:03:46;;;;;;;;;;;;;;;18.43;23.85;100158.94;4468314;32;34099;-86
2022/03/26 08:06:13;;;;;;;;;;;;;;;19.31;22.90;100151.50;4459275;32;35251;-86
2022/03/26 08:08:41;;;;;;;;;;;;;;;18.48;23.87;100160.66;4456933;32;33600;-87
2022/03/26 08:11:08;;;;;;;;;;;;;;;19.15;23.18;100153.38;4468126;32;34965;-87
2022/03/26 08:13:36;;;;;;;;;;;;;;;18.58;23.95;100155.37;4457186;32;34291;-88
2022/03/26 08:16:03;;;;;;;;;;;;;;;19.12;23.38;100153.38;4454127;32;34044;-86
2022/03/26 08:18:30;;;;;;;;;;;;;;;19.40;22.69;100149.69;4438613;32;34298;-88
2022/03/26 08:21:03;;;;;;;;;;;;;;;19.37;23.09;100146.22;4467399;32;33904;-87
2022/03/26 08:23:30;;;;;;;;;;;;;;;18.32;24.33;100151.09;4459316;32;35356;-88
2022/03/26 08:28:44;;;;;;;;;;;;;;;19.21;23.35;100155.97;4452523;32;33439;-87
2022/03/26 08:31:13;;;;;;;;;;;;;;;18.13;24.55;100152.03;4461417;32;33257;-87
2022/03/26 08:33:40;;;;;;;;;;;;;;;19.76;22.62;100139.78;4454450;32;33979;-81
2022/03/26 08:36:09;;;;;;;;;;;;;;;20.16;22.03;100148.16;4468057;32;33992;-87
2022/03/26 08:38:36;;;;;;;;;;;;;;;19.78;22.39;100148.53;4468066;32;34285;-86
2022/03/26 08:41:04;;;;;;;;;;;;;;;19.04;23.09;100149.94;4467851;32;34423;-86
2022/03/26 08:43:31;;;;;;;;;;;;;;;19.77;22.74;100144.12;4463940;32;35254;-87
2022/03/26 08:45:59;;;;;;;;;;;;;;;19.88;22.84;100146.66;4468244;32;34276;-82
2022/03/26 08:48:26;;;;;;;;;;;;;;;20.37;22.07;100154.06;4468757;32;34064;-81
2022/03/26 08:50:54;;;;;;;;;;;;;;;21.18;20.91;100152.19;4467671;32;34783;-81
2022/03/26 08:53:21;;;;;;;;;;;;;;;20.77;21.57;100150.97;4453973;32;33692;-81
2022/03/26 08:55:49;;;;;;;;;;;;;;;20.77;21.23;100143.94;4467120;32;33901;-81
2022/03/26 08:58:17;;;;;;;;;;;;;;;21.90;20.23;100145.75;4453504;32;32072;-81
2022/03/26 09:00:47;;;;;;;;;;;;;;;20.03;21.95;100154.41;4453887;32;32849;-81
2022/03/26 09:03:17;;;;;;;;;;;;;;;21.04;21.41;100153.22;4464714;32;34451;-84
2022/03/26 09:05:45;;;;;;;;;;;;;;;21.46;20.71;100150.00;4466217;32;34187;-81
2022/03/26 09:08:12;;;;;;;;;;;;;;;21.22;20.80;100148.59;4467855;32;33351;-81
2022/03/26 09:10:39;;;;;;;;;;;;;;;20.80;22.17;100153.59;4460038;32;34237;-81
2022/03/26 09:13:07;;;;;;;;;;;;;;;19.95;22.81;100143.09;4463431;32;34110;-81
2022/03/26 09:15:34;;;;;;;;;;;;;;;20.33;22.44;100160.25;4451984;32;34200;-83
2022/03/26 09:18:01;;;;;;;;;;;;;;;20.94;21.77;100153.38;4455766;32;33297;-81
2022/03/26 09:20:28;;;;;;;;;;;;;;;21.23;21.46;100142.41;4451922;32;34752;-81
2022/03/26 09:22:56;;;;;;;;;;;;;;;20.81;21.18;100150.91;4438266;32;33812;-81
2022/03/26 09:25:23;;;;;;;;;;;;;;;20.72;22.00;100147.53;4452034;32;33981;-82
2022/03/26 09:27:51;;;;;;;;;;;;;;;20.95;20.76;100149.84;4444273;32;33459;-81
2022/03/26 09:30:18;;;;;;;;;;;;;;;20.11;22.49;100144.69;4453310;32;33778;-81
2022/03/26 09:32:45;;;;;;;;;;;;;;;19.98;22.95;100136.94;4443961;32;34419;-81
2022/03/26 09:35:13;;;;;;;;;;;;;;;20.67;22.58;100144.06;4437331;32;34224;-81
2022/03/26 09:37:41;;;;;;;;;;;;;;;20.15;22.68;100135.00;4437698;32;32992;-81
2022/03/26 09:40:09;;;;;;;;;;;;;;;20.90;22.09;100134.09;4437357;32;33751;-81
2022/03/26 09:42:37;;;;;;;;;;;;;;;20.55;21.76;100131.94;4437926;32;34440;-81
2022/03/26 09:45:06;;;;;;;;;;;;;;;21.08;21.37;100131.19;4451796;32;34546;-81
2022/03/26 09:47:34;;;;;;;;;;;;;;;20.33;22.30;100139.19;4451254;32;34264;-81
2022/03/26 09:50:01;;;;;;;;;;;;;;;21.83;20.71;100143.22;4451449;32;34581;-82
2022/03/26 09:52:28;;;;;;;;;;;;;;;21.00;20.71;100140.12;4466290;32;34171;-81
2022/03/26 09:54:57;;;;;;;;;;;;;;;20.79;21.51;100139.50;4467119;32;34841;-82
2022/03/26 09:57:24;;;;;;;;;;;;;;;20.82;21.42;100142.09;4452956;32;33014;-81
2022/03/26 09:59:51;;;;;;;;;;;;;;;20.47;21.96;100144.31;4466346;32;33961;-81
2022/03/26 10:02:18;;;;;;;;;;;;;;;20.71;21.38;100135.25;4452968;32;34371;-82
2022/03/26 10:04:46;;;;;;;;;;;;;;;20.82;21.30;100130.69;4451580;32;33582;-81
2022/03/26 10:07:13;;;;;;;;;;;;;;;20.95;20.84;100140.19;4451711;32;32956;-81
2022/03/26 10:09:45;;;;;;;;;;;;;;;21.47;19.92;100136.78;4451448;32;33791;-81
2022/03/26 10:12:12;;;;;;;;;;;;;;;22.07;19.41;100135.75;4452148;32;33201;-81
2022/03/26 10:14:41;;;;;;;;;;;;;;;21.31;19.06;100132.63;4465988;32;34374;-81
2022/03/26 10:17:09;;;;;;;;;;;;;;;21.69;18.92;100129.38;4467034;32;34167;-81
2022/03/26 10:19:36;;;;;;;;;;;;;;;21.87;19.37;100115.88;4458053;32;34278;-81
2022/03/26 10:22:03;;;;;;;;;;;;;;;21.40;17.26;100119.31;4451534;32;33644;-81
2022/03/26 10:24:31;;;;;;;;;;;;;;;21.47;17.95;100117.44;4451470;32;33621;-82
2022/03/26 10:27:09;;;;;;;;;;;;;;;21.51;19.01;100108.56;4451375;32;34787;-82
2022/03/26 10:29:53;;;;;;;;;;;;;;;21.63;18.58;100113.66;4451094;32;35085;-81
2022/03/26 10:32:39;;;;;;;;;;;;;;;22.36;17.46;100121.16;4464655;32;34645;-81
2022/03/26 10:35:07;;;;;;;;;;;;;;;21.00;18.64;100105.84;4466716;32;34245;-82
2022/03/26 10:37:45;;;;;;;;;;;;;;;22.10;18.59;100114.56;4466183;32;33493;-81
2022/03/26 10:40:20;;;;;;;;;;;;;;;22.09;17.43;100099.62;4452799;32;33787;-81
2022/03/26 10:42:54;;;;;;;;;;;;;;;21.64;17.43;100103.97;4452242;32;34245;-81
2022/03/26 10:45:21;;;;;;;;;;;;;;;22.57;16.87;100107.47;4466765;32;33834;-80
2022/03/26 10:47:52;;;;;;;;;;;;;;;21.81;17.52;100097.47;4466450;32;34107;-81
2022/03/26 10:50:19;;;;;;;;;;;;;;;22.39;16.64;100099.91;4452782;32;34778;-87
2022/03/26 10:52:52;;;;;;;;;;;;;;;22.60;17.02;100096.84;4465367;32;33738;-81
2022/03/26 10:55:21;;;;;;;;;;;;;;;22.37;16.50;100085.88;4466625;32;35101;-80
2022/03/26 10:57:50;;;;;;;;;;;;;;;22.39;16.30;100089.34;4466870;32;32391;-87
2022/03/26 11:00:18;;;;;;;;;;;;;;;22.24;16.60;100086.16;4452226;32;35132;-89
2022/03/26 11:02:45;;;;;;;;;;;;;;;23.67;15.92;100078.44;4466580;32;34394;-81
2022/03/26 11:05:13;;;;;;;;;;;;;;;22.89;17.63;100082.13;4464571;32;34123;-86
2022/03/26 11:07:43;;;;;;;;;;;;;;;23.31;16.41;100070.53;4456190;32;33910;-86
2022/03/26 11:10:12;;;;;;;;;;;;;;;23.34;16.99;100077.53;4466805;32;34374;-87
2022/03/26 11:12:41;;;;;;;;;;;;;;;22.26;17.98;100096.66;4454370;32;34237;-86
2022/03/26 11:15:09;;;;;;;;;;;;;;;23.11;17.10;100071.91;4462805;32;34223;-85
2022/03/26 11:17:56;;;;;;;;;;;;;;;23.17;16.64;100064.69;4449771;32;33272;-81
2022/03/26 11:20:35;;;;;;;;;;;;;;;24.08;16.47;100060.56;4453599;32;33758;-85
2022/03/26 11:23:08;;;;;;;;;;;;;;;22.15;18.04;100059.91;4457235;32;33642;-88
2022/03/26 11:25:36;;;;;;;;;;;;;;;22.58;17.45;100048.44;4468097;32;34675;-83
2022/03/26 11:28:18;;;;;;;;;;;;;;;23.29;17.00;100051.16;4468555;32;34172;-86
2022/03/26 11:30:48;;;;;;;;;;;;;;;22.85;16.59;100043.44;4461371;32;34162;-81
2022/03/26 11:33:15;;;;;;;;;;;;;;;23.02;16.14;100051.84;4438767;32;33757;-85
2022/03/26 11:36:09;;;;;;;;;;;;;;;22.36;17.42;100037.47;4438777;32;34358;-84
2022/03/26 11:38:36;;;;;;;;;;;;;;;21.54;17.63;100046.06;4451625;32;33045;-81
2022/03/26 11:41:05;;;;;;;;;;;;;;;22.34;17.26;100034.84;4444249;32;33973;-80
2022/03/26 11:43:44;;;;;;;;;;;;;;;21.82;17.92;100030.63;4468509;32;34385;-80
2022/03/26 11:51:51;;;;;;;;;;;;;;;22.74;16.31;100012.81;4457971;32;34061;-80
2022/03/26 11:54:19;;;;;;;;;;;;;;;21.82;16.44;100019.16;4453025;32;34466;-78
2022/03/26 11:56:47;;;;;;;;;;;;;;;21.46;17.62;100010.19;4452744;32;34372;-80
2022/03/26 11:59:17;;;;;;;;;;;;;;;22.55;15.38;100009.72;4455328;32;33655;-82
2022/03/26 12:01:47;;;;;;;;;;;;;;;22.37;15.76;100012.78;4462009;32;33677;-81
2022/03/26 12:04:16;;;;;;;;;;;;;;;22.52;16.68;100003.66;4467375;32;34315;-80
2022/03/26 12:06:48;;;;;;;;;;;;;;;23.76;15.32;100006.72;4468011;32;33979;-80
2022/03/26 12:09:33;;;;;;;;;;;;;;;23.84;14.78;100001.22;4468050;32;34238;-82
2022/03/26 12:12:07;;;;;;;;;;;;;;;23.31;15.20;100000.88;4456532;32;34311;-81
2022/03/26 12:14:35;;;;;;;;;;;;;;;22.56;16.58;100002.66;4452359;32;34261;-80
2022/03/26 12:17:03;;;;;;;;;;;;;;;23.98;15.05;99996.41;4452310;32;34862;-81
2022/03/26 12:19:37;;;;;;;;;;;;;;;23.81;15.02;99992.50;4466210;32;34399;-81
2022/03/26 12:22:28;;;;;;;;;;;;;;;22.86;15.11;99987.00;4467196;32;34925;-80
2022/03/26 12:24:57;;;;;;;;;;;;;;;22.87;15.39;99986.06;4468161;32;34934;-80
2022/03/26 12:27:24;;;;;;;;;;;;;;;22.88;15.80;99982.53;4467662;32;33760;-82
2022/03/26 12:29:58;;;;;;;;;;;;;;;22.98;14.49;99984.06;4438578;32;32698;-81
2022/03/26 12:32:29;;;;;;;;;;;;;;;22.13;14.77;99981.59;4452394;32;34082;-82
2022/03/26 12:35:04;;;;;;;;;;;;;;;22.12;15.42;99978.06;4452693;32;34779;-82
2022/03/26 12:37:35;;;;;;;;;;;;;;;23.12;13.84;99976.66;4452827;32;33937;-81
2022/03/26 12:40:04;;;;;;;;;;;;;;;23.46;13.61;99973.13;4453843;32;33100;-81
2022/03/26 12:42:31;;;;;;;;;;;;;;;22.93;13.73;99968.31;4467902;32;34305;-81
2022/03/26 12:44:58;;;;;;;;;;;;;;;23.09;13.92;99965.28;4467824;32;34221;-82
2022/03/26 12:47:26;;;;;;;;;;;;;;;23.20;13.48;99969.41;4467692;32;34161;-82
2022/03/26 12:49:54;;;;;;;;;;;;;;;21.91;14.13;99965.31;4467653;32;34190;-81
2022/03/26 12:52:22;;;;;;;;;;;;;;;22.06;13.65;99965.00;4467856;32;34954;-81